Time;durP1;ratioP1;P1;durP2;ratioP2;P2;SDS_P1;SDS_P2;PMS_P1;PMS_P2;Temp;Humidity;BMP_temperature;BMP_pressure;BME280_temperature;BME280_humidity;BME280_pressure;Samples;Min_cycle;Max_cycle;Signal;HPM_P1;HPM_P2
2020/12/23 00:00:50;;;;;;;83.22;38.15;;;;;;;;;;5055873;28;20385;-61
2020/12/23 00:03:16;;;;;;;78.65;37.90;;;;;;;;;;5055557;28;20471;-61
2020/12/23 00:05:43;;;;;;;88.55;41.88;;;;;;;;;;5055503;28;20029;-61
2020/12/23 00:08:09;;;;;;;80.97;38.17;;;;;;;;;;5055243;28;20045;-61
2020/12/23 00:10:35;;;;;;;83.30;37.30;;;;;;;;;;5055462;28;20017;-61
2020/12/23 00:13:02;;;;;;;82.25;38.78;;;;;;;;;;5055284;28;20025;-61
2020/12/23 00:15:28;;;;;;;81.72;37.67;;;;;;;;;;5055119;28;20075;-61
2020/12/23 00:17:54;;;;;;;76.60;37.22;;;;;;;;;;5055475;28;20028;-61
2020/12/23 00:20:20;;;;;;;86.53;38.45;;;;;;;;;;5055118;28;20029;-61
2020/12/23 00:22:46;;;;;;;82.18;38.47;;;;;;;;;;5055226;28;20029;-61
2020/12/23 00:25:12;;;;;;;82.95;39.28;;;;;;;;;;5055407;28;20386;-61
2020/12/23 00:27:39;;;;;;;81.85;39.78;;;;;;;;;;5054528;28;20041;-61
2020/12/23 00:30:05;;;;;;;86.25;39.08;;;;;;;;;;5055240;28;20100;-61
2020/12/23 00:32:31;;;;;;;87.53;40.38;;;;;;;;;;5054926;28;20505;-62
2020/12/23 00:34:57;;;;;;;83.32;39.17;;;;;;;;;;5054989;28;20031;-61
2020/12/23 00:37:23;;;;;;;86.78;40.03;;;;;;;;;;5054983;28;20429;-61
2020/12/23 00:39:50;;;;;;;93.18;42.38;;;;;;;;;;5055191;28;20017;-61
2020/12/23 00:42:16;;;;;;;90.68;39.55;;;;;;;;;;5055064;28;20055;-61
2020/12/23 00:44:42;;;;;;;84.43;40.63;;;;;;;;;;5054673;28;20066;-61
2020/12/23 00:47:08;;;;;;;80.25;39.15;;;;;;;;;;5054622;28;20417;-61
2020/12/23 00:49:34;;;;;;;84.47;39.00;;;;;;;;;;5054752;28;20021;-61
2020/12/23 00:52:00;;;;;;;79.72;38.22;;;;;;;;;;5054418;28;20031;-61
2020/12/23 00:54:26;;;;;;;80.03;39.13;;;;;;;;;;5054544;28;20445;-61
2020/12/23 00:56:53;;;;;;;82.68;39.60;;;;;;;;;;5054387;28;20017;-61
2020/12/23 00:59:19;;;;;;;81.88;38.85;;;;;;;;;;5054442;28;20048;-61
2020/12/23 01:01:45;;;;;;;78.22;39.17;;;;;;;;;;5054469;28;20021;-61
2020/12/23 01:04:11;;;;;;;84.90;40.15;;;;;;;;;;5054424;28;20473;-61
2020/12/23 01:06:37;;;;;;;87.18;41.97;;;;;;;;;;5054463;28;20393;-61
2020/12/23 01:09:03;;;;;;;90.82;43.22;;;;;;;;;;5036331;28;20032;-61
2020/12/23 01:11:30;;;;;;;81.35;40.45;;;;;;;;;;5054256;28;20025;-61
2020/12/23 01:13:56;;;;;;;83.45;39.88;;;;;;;;;;5054238;28;20033;-61
2020/12/23 01:16:22;;;;;;;75.57;38.47;;;;;;;;;;5054368;28;20104;-61
2020/12/23 01:18:49;;;;;;;82.53;39.65;;;;;;;;;;5054108;28;20518;-61
2020/12/23 01:21:15;;;;;;;83.35;39.63;;;;;;;;;;5053934;28;20029;-61
2020/12/23 01:23:42;;;;;;;77.65;39.22;;;;;;;;;;5054281;28;20098;-60
2020/12/23 01:26:08;;;;;;;83.40;39.67;;;;;;;;;;5053732;28;20112;-61
2020/12/23 01:28:34;;;;;;;80.53;40.38;;;;;;;;;;5054121;28;20032;-60
2020/12/23 01:31:00;;;;;;;89.38;41.22;;;;;;;;;;5053901;28;20017;-60
2020/12/23 01:33:26;;;;;;;75.60;39.28;;;;;;;;;;5053847;28;20033;-60
2020/12/23 01:35:52;;;;;;;75.68;38.70;;;;;;;;;;5053966;28;20078;-60
2020/12/23 01:38:19;;;;;;;76.50;39.20;;;;;;;;;;5053165;28;20581;-61
2020/12/23 01:40:45;;;;;;;77.82;37.70;;;;;;;;;;5053685;28;20050;-60
2020/12/23 01:43:11;;;;;;;75.25;37.45;;;;;;;;;;5053978;28;20032;-60
2020/12/23 01:45:37;;;;;;;81.88;38.00;;;;;;;;;;5053650;28;20449;-60
2020/12/23 01:48:29;;;;;;;70.00;36.17;;;;;;;;;;5053603;28;20033;-60
2020/12/23 01:50:58;;;;;;;83.65;39.47;;;;;;;;;;5050011;28;20037;-60
2020/12/23 01:53:24;;;;;;;87.75;40.28;;;;;;;;;;5053532;28;20048;-60
2020/12/23 01:55:51;;;;;;;84.13;40.85;;;;;;;;;;5053163;28;20505;-60
2020/12/23 01:58:17;;;;;;;82.20;40.88;;;;;;;;;;5053705;28;20029;-60
2020/12/23 02:00:43;;;;;;;85.72;41.40;;;;;;;;;;5053516;28;20115;-60
2020/12/23 02:03:10;;;;;;;83.13;41.22;;;;;;;;;;5053369;28;20067;-60
2020/12/23 02:05:37;;;;;;;79.78;39.47;;;;;;;;;;5053361;28;20031;-60
2020/12/23 02:08:04;;;;;;;75.05;37.60;;;;;;;;;;5053126;28;20549;-60
2020/12/23 02:10:31;;;;;;;74.93;38.42;;;;;;;;;;5035412;28;20374;-60
2020/12/23 02:12:58;;;;;;;71.43;37.00;;;;;;;;;;5053810;28;20419;-60
2020/12/23 02:15:24;;;;;;;77.57;39.05;;;;;;;;;;5053297;28;20050;-60
2020/12/23 02:17:50;;;;;;;77.82;39.40;;;;;;;;;;5053118;28;20112;-60
2020/12/23 02:20:17;;;;;;;81.80;38.70;;;;;;;;;;5053301;28;20482;-60
2020/12/23 02:22:43;;;;;;;71.80;37.45;;;;;;;;;;5053123;28;20071;-60
2020/12/23 02:25:10;;;;;;;79.03;36.78;;;;;;;;;;5053104;28;20041;-60
2020/12/23 02:27:37;;;;;;;70.47;36.75;;;;;;;;;;5052855;28;20482;-60
2020/12/23 02:30:05;;;;;;;78.45;38.28;;;;;;;;;;5053330;28;20477;-60
2020/12/23 02:32:31;;;;;;;75.13;37.85;;;;;;;;;;5053160;28;20064;-60
2020/12/23 02:34:57;;;;;;;78.68;37.92;;;;;;;;;;5053197;28;20098;-60
2020/12/23 02:37:24;;;;;;;72.80;37.17;;;;;;;;;;5053039;28;20501;-60
2020/12/23 02:39:51;;;;;;;68.95;35.78;;;;;;;;;;5052969;28;20025;-60
2020/12/23 02:42:18;;;;;;;67.05;35.47;;;;;;;;;;5052943;28;20025;-60
2020/12/23 02:44:44;;;;;;;72.90;36.58;;;;;;;;;;5053177;28;20044;-60
2020/12/23 02:47:11;;;;;;;75.35;37.40;;;;;;;;;;5052705;28;20470;-60
2020/12/23 02:49:38;;;;;;;73.70;37.55;;;;;;;;;;5054378;28;20017;-60
2020/12/23 02:52:04;;;;;;;74.47;37.40;;;;;;;;;;5057112;28;20090;-60
2020/12/23 02:54:30;;;;;;;66.13;35.65;;;;;;;;;;5056649;28;20041;-60
2020/12/23 02:56:57;;;;;;;66.82;37.70;;;;;;;;;;5057011;28;20074;-60
2020/12/23 02:59:23;;;;;;;78.10;40.13;;;;;;;;;;5057076;28;20033;-60
2020/12/23 03:01:49;;;;;;;71.72;38.35;;;;;;;;;;5056960;28;20060;-60
2020/12/23 03:04:15;;;;;;;73.72;39.63;;;;;;;;;;5038872;28;20028;-60
2020/12/23 03:06:42;;;;;;;74.20;39.20;;;;;;;;;;5056671;28;20159;-60
2020/12/23 03:09:09;;;;;;;71.03;38.35;;;;;;;;;;5056614;28;20051;-60
2020/12/23 03:11:35;;;;;;;73.10;39.75;;;;;;;;;;5056838;28;20025;-60
2020/12/23 03:14:02;;;;;;;73.20;39.70;;;;;;;;;;5056429;28;20473;-60
2020/12/23 03:16:28;;;;;;;79.95;40.95;;;;;;;;;;5056520;28;20544;-60
2020/12/23 03:18:55;;;;;;;74.90;39.53;;;;;;;;;;5056260;28;20025;-60
2020/12/23 03:21:21;;;;;;;79.63;40.08;;;;;;;;;;5056308;28;20039;-60
2020/12/23 03:23:47;;;;;;;77.25;41.25;;;;;;;;;;5056585;28;20428;-60
2020/12/23 03:26:13;;;;;;;72.85;40.20;;;;;;;;;;5056226;28;20025;-60
2020/12/23 03:28:40;;;;;;;76.43;40.40;;;;;;;;;;5056432;28;20037;-61
2020/12/23 03:31:06;;;;;;;78.85;40.33;;;;;;;;;;5056518;28;20025;-60
2020/12/23 03:33:32;;;;;;;77.05;40.17;;;;;;;;;;5056058;28;20025;-60
2020/12/23 03:35:58;;;;;;;74.00;38.40;;;;;;;;;;5056573;28;20032;-60
2020/12/23 03:38:25;;;;;;;80.55;39.30;;;;;;;;;;5056018;28;20071;-60
2020/12/23 03:40:51;;;;;;;69.22;37.85;;;;;;;;;;5056300;28;20138;-60
2020/12/23 03:43:17;;;;;;;79.40;38.65;;;;;;;;;;5055952;28;20027;-60
2020/12/23 03:45:43;;;;;;;81.57;39.15;;;;;;;;;;5056100;28;20051;-60
2020/12/23 03:48:09;;;;;;;74.45;39.25;;;;;;;;;;5055706;28;20041;-60
2020/12/23 03:50:36;;;;;;;78.97;39.70;;;;;;;;;;5055922;28;20052;-60
2020/12/23 03:53:02;;;;;;;77.28;38.85;;;;;;;;;;5055850;28;20104;-60
2020/12/23 03:55:28;;;;;;;75.45;39.15;;;;;;;;;;5055433;28;20055;-60
2020/12/23 03:57:55;;;;;;;77.57;38.63;;;;;;;;;;5055821;28;20421;-60
2020/12/23 04:00:21;;;;;;;77.72;39.15;;;;;;;;;;5037562;28;20428;-60
2020/12/23 04:02:47;;;;;;;74.55;38.50;;;;;;;;;;5055008;28;20028;-60
2020/12/23 04:05:13;;;;;;;73.43;38.63;;;;;;;;;;5055762;28;20025;-60
2020/12/23 04:07:39;;;;;;;75.72;39.28;;;;;;;;;;5055405;28;20051;-60
2020/12/23 04:10:06;;;;;;;77.57;39.38;;;;;;;;;;5055473;28;20131;-60
2020/12/23 04:12:33;;;;;;;79.72;38.53;;;;;;;;;;5055427;28;20032;-60
2020/12/23 04:14:59;;;;;;;78.03;41.10;;;;;;;;;;5055397;28;20029;-60
2020/12/23 04:17:25;;;;;;;74.70;40.65;;;;;;;;;;5055571;28;20390;-61
2020/12/23 04:19:51;;;;;;;80.40;39.00;;;;;;;;;;5055544;28;20377;-60
2020/12/23 04:22:18;;;;;;;78.00;38.70;;;;;;;;;;5055086;28;20102;-60
2020/12/23 04:24:44;;;;;;;78.78;40.15;;;;;;;;;;5055190;28;20028;-60
2020/12/23 04:27:10;;;;;;;79.13;39.65;;;;;;;;;;5055009;28;20029;-60
2020/12/23 04:29:36;;;;;;;78.68;39.00;;;;;;;;;;5055025;28;20032;-60
2020/12/23 04:32:02;;;;;;;85.30;41.17;;;;;;;;;;5054846;28;20104;-61
2020/12/23 04:34:28;;;;;;;85.10;40.28;;;;;;;;;;5054888;28;20390;-60
2020/12/23 04:36:54;;;;;;;81.00;40.08;;;;;;;;;;5054996;28;20477;-60
2020/12/23 04:39:20;;;;;;;77.43;37.63;;;;;;;;;;5055110;28;20076;-61
2020/12/23 04:41:47;;;;;;;79.55;39.78;;;;;;;;;;5055146;28;20398;-60
2020/12/23 04:44:13;;;;;;;78.00;39.92;;;;;;;;;;5054826;28;20048;-60
2020/12/23 04:46:39;;;;;;;79.35;39.08;;;;;;;;;;5054588;28;20033;-60
2020/12/23 04:49:06;;;;;;;76.55;39.13;;;;;;;;;;5055017;28;20055;-61
2020/12/23 04:51:33;;;;;;;80.97;39.70;;;;;;;;;;5054934;28;20017;-60
2020/12/23 04:54:00;;;;;;;78.65;38.80;;;;;;;;;;5054616;28;20063;-61
2020/12/23 04:56:27;;;;;;;80.35;38.67;;;;;;;;;;5054681;28;20025;-60
2020/12/23 04:58:54;;;;;;;83.70;40.50;;;;;;;;;;5054349;28;20032;-61
2020/12/23 05:01:20;;;;;;;78.10;39.53;;;;;;;;;;5054742;28;20374;-60
2020/12/23 05:03:46;;;;;;;77.22;37.55;;;;;;;;;;5054383;28;20500;-61
2020/12/23 05:06:13;;;;;;;80.78;40.60;;;;;;;;;;5054871;28;20098;-61
2020/12/23 05:08:39;;;;;;;78.60;38.55;;;;;;;;;;5054364;28;20036;-60
2020/12/23 05:11:06;;;;;;;82.28;39.50;;;;;;;;;;5054543;28;20021;-61
2020/12/23 05:13:32;;;;;;;88.25;39.58;;;;;;;;;;5053193;28;20032;-61
2020/12/23 05:15:58;;;;;;;82.45;40.15;;;;;;;;;;5054210;28;20044;-61
2020/12/23 05:18:32;;;;;;;77.53;38.50;;;;;;;;;;5054136;28;20025;-61
2020/12/23 05:20:58;;;;;;;79.25;36.63;;;;;;;;;;5054130;28;20146;-61
2020/12/23 05:23:24;;;;;;;82.15;41.10;;;;;;;;;;5053859;28;20474;-60
2020/12/23 05:25:50;;;;;;;77.85;38.70;;;;;;;;;;5054251;28;20036;-61
2020/12/23 05:28:17;;;;;;;76.88;38.15;;;;;;;;;;5053869;28;20037;-61
2020/12/23 05:30:44;;;;;;;78.47;38.85;;;;;;;;;;5054105;28;20413;-61
2020/12/23 05:33:13;;;;;;;76.65;38.28;;;;;;;;;;5053820;28;20025;-61
2020/12/23 05:35:39;;;;;;;84.35;38.25;;;;;;;;;;5053798;28;20025;-60
2020/12/23 05:38:05;;;;;;;78.35;38.13;;;;;;;;;;5053863;28;20032;-61
2020/12/23 05:40:32;;;;;;;80.30;39.35;;;;;;;;;;5053647;28;20099;-61
2020/12/23 05:42:58;;;;;;;79.53;37.85;;;;;;;;;;5053685;28;20021;-61
2020/12/23 05:45:27;;;;;;;77.80;38.78;;;;;;;;;;5053491;28;20025;-61
2020/12/23 05:47:54;;;;;;;75.47;36.10;;;;;;;;;;5053701;28;20029;-61
2020/12/23 05:50:21;;;;;;;109.57;48.25;;;;;;;;;;5052155;28;20486;-60
2020/12/23 05:52:48;;;;;;;80.95;37.53;;;;;;;;;;5053378;28;20359;-61
2020/12/23 05:55:15;;;;;;;112.82;53.17;;;;;;;;;;5053319;28;20044;-61
2020/12/23 05:57:41;;;;;;;118.40;57.03;;;;;;;;;;5053535;28;20021;-61
2020/12/23 06:00:07;;;;;;;76.90;39.20;;;;;;;;;;5053390;28;20033;-60
2020/12/23 06:02:38;;;;;;;71.00;35.85;;;;;;;;;;5053417;28;20032;-60
2020/12/23 06:05:04;;;;;;;82.93;43.30;;;;;;;;;;5053402;28;20386;-61
2020/12/23 06:07:32;;;;;;;80.63;37.28;;;;;;;;;;5052379;28;20482;-61
2020/12/23 06:09:59;;;;;;;77.47;37.60;;;;;;;;;;5052085;28;20021;-60
2020/12/23 06:12:25;;;;;;;78.22;37.58;;;;;;;;;;5053129;28;20103;-61
2020/12/23 06:14:55;;;;;;;85.32;39.25;;;;;;;;;;5052397;28;20037;-60
2020/12/23 06:17:23;;;;;;;80.82;38.13;;;;;;;;;;5052731;28;20029;-60
2020/12/23 06:19:50;;;;;;;74.47;37.45;;;;;;;;;;5053044;28;20040;-60
2020/12/23 06:22:16;;;;;;;80.47;37.92;;;;;;;;;;5053279;28;20078;-60
2020/12/23 06:24:42;;;;;;;77.70;36.92;;;;;;;;;;5052926;28;20042;-60
2020/12/23 06:27:09;;;;;;;75.60;35.63;;;;;;;;;;5052847;28;20037;-61
2020/12/23 06:29:37;;;;;;;76.32;37.38;;;;;;;;;;5053276;28;20021;-60
2020/12/23 06:32:03;;;;;;;78.68;37.42;;;;;;;;;;5052967;28;20033;-61
2020/12/23 06:34:30;;;;;;;76.03;36.40;;;;;;;;;;5052946;28;20029;-61
2020/12/23 06:36:57;;;;;;;72.90;36.15;;;;;;;;;;5052957;28;20036;-61
2020/12/23 06:39:27;;;;;;;69.28;35.88;;;;;;;;;;5053271;28;20104;-61
2020/12/23 06:42:16;;;;;;;68.40;33.90;;;;;;;;;;5052981;28;20075;-60
2020/12/23 06:44:42;;;;;;;69.35;34.08;;;;;;;;;;5044911;28;20065;-61
2020/12/23 06:47:13;;;;;;;68.43;34.85;;;;;;;;;;5052952;28;20138;-61
2020/12/23 06:50:00;;;;;;;63.17;33.13;;;;;;;;;;5052728;28;20459;-61
2020/12/23 06:52:27;;;;;;;72.72;34.30;;;;;;;;;;5052804;28;20033;-60
2020/12/23 06:54:56;;;;;;;75.32;37.53;;;;;;;;;;5052600;28;20552;-60
2020/12/23 06:57:37;;;;;;;73.43;35.47;;;;;;;;;;5052940;28;20155;-61
2020/12/23 07:00:03;;;;;;;73.40;37.40;;;;;;;;;;5053110;28;20028;-61
2020/12/23 07:02:32;;;;;;;74.97;35.88;;;;;;;;;;5052820;28;20485;-61
2020/12/23 07:04:59;;;;;;;71.22;34.35;;;;;;;;;;5052991;28;20025;-60
2020/12/23 07:07:35;;;;;;;73.18;36.53;;;;;;;;;;5052619;28;20056;-61
2020/12/23 07:10:14;;;;;;;74.85;36.33;;;;;;;;;;5052692;28;20029;-62
2020/12/23 07:12:53;;;;;;;72.50;35.22;;;;;;;;;;5052752;28;20433;-61
2020/12/23 07:15:22;;;;;;;77.45;39.35;;;;;;;;;;5052917;28;20359;-61
2020/12/23 07:17:50;;;;;;;71.07;35.30;;;;;;;;;;5052640;28;20355;-61
2020/12/23 07:20:16;;;;;;;73.60;35.40;;;;;;;;;;5052547;28;20120;-61
2020/12/23 07:22:47;;;;;;;69.25;34.30;;;;;;;;;;5052392;28;20031;-61
2020/12/23 07:25:17;;;;;;;65.30;33.88;;;;;;;;;;5052641;28;20445;-61
2020/12/23 07:27:45;;;;;;;66.28;33.85;;;;;;;;;;5052465;28;20041;-61
2020/12/23 07:30:11;;;;;;;73.05;35.42;;;;;;;;;;5052633;28;20387;-61
2020/12/23 07:32:37;;;;;;;66.75;34.45;;;;;;;;;;5052187;28;20029;-61
2020/12/23 07:35:07;;;;;;;68.43;34.45;;;;;;;;;;5052460;28;20021;-61
2020/12/23 07:37:40;;;;;;;62.08;34.67;;;;;;;;;;5055161;28;20119;-61
2020/12/23 07:40:15;;;;;;;71.80;36.38;;;;;;;;;;5056069;28;20028;-60
2020/12/23 07:42:48;;;;;;;64.78;32.70;;;;;;;;;;5055852;28;20040;-61
2020/12/23 07:45:15;;;;;;;69.95;34.67;;;;;;;;;;5055880;28;20021;-61
2020/12/23 07:47:50;;;;;;;72.03;36.97;;;;;;;;;;5055901;28;20067;-60
2020/12/23 07:50:16;;;;;;;77.80;37.45;;;;;;;;;;5055329;28;20025;-60
2020/12/23 07:52:42;;;;;;;72.22;37.67;;;;;;;;;;5054870;28;20044;-60
2020/12/23 07:55:12;;;;;;;72.90;35.65;;;;;;;;;;5055767;28;20060;-61
2020/12/23 07:57:38;;;;;;;92.28;44.88;;;;;;;;;;5055321;28;20497;-61
2020/12/23 08:00:08;;;;;;;77.80;38.00;;;;;;;;;;5055757;28;20067;-61
2020/12/23 08:02:37;;;;;;;88.05;39.80;;;;;;;;;;5055506;28;20025;-62
2020/12/23 08:05:04;;;;;;;67.63;32.28;;;;;;;;;;5055524;28;20017;-61
2020/12/23 08:07:30;;;;;;;73.63;37.08;;;;;;;;;;5055639;28;20032;-62
2020/12/23 08:09:56;;;;;;;72.32;36.13;;;;;;;;;;5055441;28;20561;-61
2020/12/23 08:12:22;;;;;;;79.32;37.08;;;;;;;;;;5055299;28;20063;-61
2020/12/23 08:14:49;;;;;;;83.97;39.58;;;;;;;;;;5055316;28;20033;-61
2020/12/23 08:17:24;;;;;;;77.45;37.60;;;;;;;;;;5055544;28;20060;-61
2020/12/23 08:20:04;;;;;;;79.50;38.05;;;;;;;;;;5055069;28;20116;-61
2020/12/23 08:22:30;;;;;;;80.53;38.97;;;;;;;;;;5055013;28;20025;-61
2020/12/23 08:25:06;;;;;;;87.15;39.50;;;;;;;;;;5055247;28;20027;-61
2020/12/23 08:27:33;;;;;;;82.70;40.75;;;;;;;;;;5054862;28;20059;-61
2020/12/23 08:30:00;;;;;;;88.35;41.22;;;;;;;;;;5054834;28;20033;-61
2020/12/23 08:32:29;;;;;;;82.38;39.13;;;;;;;;;;5055018;28;20060;-61
2020/12/23 08:34:58;;;;;;;85.13;40.55;;;;;;;;;;5055130;28;20032;-60
2020/12/23 08:37:25;;;;;;;92.18;42.67;;;;;;;;;;5054954;28;20127;-61
2020/12/23 08:39:58;;;;;;;87.85;41.60;;;;;;;;;;5055565;28;20025;-61
2020/12/23 08:42:24;;;;;;;85.82;41.53;;;;;;;;;;5054708;28;20025;-60
2020/12/23 08:44:51;;;;;;;92.22;41.75;;;;;;;;;;5054692;28;20031;-60
2020/12/23 08:47:22;;;;;;;89.75;40.65;;;;;;;;;;5054502;28;20062;-61
2020/12/23 08:49:48;;;;;;;85.20;40.53;;;;;;;;;;5054546;28;20147;-61
2020/12/23 08:52:18;;;;;;;89.38;41.58;;;;;;;;;;5054633;28;20452;-61
2020/12/23 08:54:45;;;;;;;84.07;40.72;;;;;;;;;;5054320;28;20045;-61
2020/12/23 08:57:12;;;;;;;82.85;39.60;;;;;;;;;;5054479;28;20037;-61
2020/12/23 08:59:40;;;;;;;83.30;40.85;;;;;;;;;;5054261;28;20028;-61
2020/12/23 09:02:12;;;;;;;86.22;45.15;;;;;;;;;;5054369;28;20104;-61
2020/12/23 09:04:38;;;;;;;91.68;42.47;;;;;;;;;;5054359;28;20017;-61
2020/12/23 09:07:04;;;;;;;94.95;45.45;;;;;;;;;;5054197;28;20091;-61
2020/12/23 09:09:30;;;;;;;93.10;43.70;;;;;;;;;;5054491;28;20029;-61
2020/12/23 09:11:58;;;;;;;88.68;43.05;;;;;;;;;;5054495;28;20433;-61
2020/12/23 09:14:27;;;;;;;93.13;42.60;;;;;;;;;;5053938;28;20512;-61
2020/12/23 09:16:54;;;;;;;88.55;43.58;;;;;;;;;;5054280;28;20541;-61
2020/12/23 09:19:20;;;;;;;81.80;42.75;;;;;;;;;;5054104;28;20086;-61
2020/12/23 09:21:55;;;;;;;87.93;42.38;;;;;;;;;;5054306;28;20025;-62
2020/12/23 09:24:23;;;;;;;85.85;40.50;;;;;;;;;;5053894;28;20415;-61
2020/12/23 09:26:49;;;;;;;95.93;50.25;;;;;;;;;;5054015;28;20562;-61
2020/12/23 09:29:15;;;;;;;86.95;42.30;;;;;;;;;;5053732;28;20029;-61
2020/12/23 09:31:54;;;;;;;95.30;45.15;;;;;;;;;;5053911;28;20037;-61
2020/12/23 09:34:23;;;;;;;106.75;52.33;;;;;;;;;;5053696;28;20036;-61
2020/12/23 09:36:56;;;;;;;104.30;50.55;;;;;;;;;;5053662;28;20032;-62
2020/12/23 09:39:22;;;;;;;93.70;46.70;;;;;;;;;;5053936;28;20044;-61
2020/12/23 09:42:01;;;;;;;93.00;47.00;;;;;;;;;;5053783;28;20071;-62
2020/12/23 09:44:27;;;;;;;98.07;45.38;;;;;;;;;;5053912;28;20421;-61
2020/12/23 09:46:53;;;;;;;85.50;42.92;;;;;;;;;;5053573;28;20040;-61
2020/12/23 09:49:19;;;;;;;94.85;46.40;;;;;;;;;;5053602;28;20025;-61
2020/12/23 09:51:49;;;;;;;97.00;45.35;;;;;;;;;;5053459;28;20040;-61
2020/12/23 09:54:15;;;;;;;92.63;43.88;;;;;;;;;;5053749;28;20041;-62
2020/12/23 09:56:51;;;;;;;105.18;45.50;;;;;;;;;;5053676;28;20107;-61
2020/12/23 09:59:18;;;;;;;95.65;43.88;;;;;;;;;;5053267;28;20032;-61
2020/12/23 10:01:44;;;;;;;90.47;43.17;;;;;;;;;;5053609;28;20370;-61
2020/12/23 10:04:10;;;;;;;92.70;44.15;;;;;;;;;;5052456;28;20033;-61
2020/12/23 10:06:37;;;;;;;92.95;42.38;;;;;;;;;;5053127;28;20472;-61
2020/12/23 10:09:03;;;;;;;97.90;46.58;;;;;;;;;;5053483;28;20108;-61
2020/12/23 10:11:30;;;;;;;95.13;42.85;;;;;;;;;;5053262;28;20028;-61
2020/12/23 10:13:56;;;;;;;92.22;42.95;;;;;;;;;;5053064;28;20028;-62
2020/12/23 10:16:23;;;;;;;93.85;43.85;;;;;;;;;;5053520;28;20443;-61
2020/12/23 10:18:49;;;;;;;125.60;60.78;;;;;;;;;;5053166;28;20100;-61
2020/12/23 10:21:15;;;;;;;93.97;42.63;;;;;;;;;;5053003;28;20025;-60
2020/12/23 10:23:41;;;;;;;93.70;43.05;;;;;;;;;;5053019;28;20022;-61
2020/12/23 10:26:07;;;;;;;93.65;41.67;;;;;;;;;;5053305;28;20036;-61
2020/12/23 10:28:33;;;;;;;101.97;45.58;;;;;;;;;;5053029;28;20041;-62
2020/12/23 10:31:01;;;;;;;93.47;44.47;;;;;;;;;;5053301;28;20362;-63
2020/12/23 10:33:28;;;;;;;96.68;44.40;;;;;;;;;;5053018;28;20095;-60
2020/12/23 10:35:54;;;;;;;91.00;43.00;;;;;;;;;;5051661;28;20355;-61
2020/12/23 10:38:20;;;;;;;96.75;44.78;;;;;;;;;;5052902;28;20031;-61
2020/12/23 10:40:46;;;;;;;94.72;42.83;;;;;;;;;;5052842;28;20017;-62
2020/12/23 10:43:12;;;;;;;92.47;41.25;;;;;;;;;;5052871;28;20071;-62
2020/12/23 10:45:39;;;;;;;86.55;40.45;;;;;;;;;;5052635;28;20048;-62
2020/12/23 10:48:05;;;;;;;94.50;43.45;;;;;;;;;;5052799;28;20124;-61
2020/12/23 10:50:31;;;;;;;96.68;41.72;;;;;;;;;;5052722;28;20509;-61
2020/12/23 10:52:57;;;;;;;90.82;40.78;;;;;;;;;;5052887;28;20060;-61
2020/12/23 10:55:23;;;;;;;96.15;41.30;;;;;;;;;;5052572;28;20080;-61
2020/12/23 10:57:49;;;;;;;95.03;42.17;;;;;;;;;;5052041;28;20102;-62
2020/12/23 11:00:15;;;;;;;94.22;42.78;;;;;;;;;;5052808;28;20103;-61
2020/12/23 11:02:42;;;;;;;97.45;41.65;;;;;;;;;;5053037;28;20485;-61
2020/12/23 11:05:08;;;;;;;99.75;40.20;;;;;;;;;;5052427;28;20541;-62
2020/12/23 11:07:34;;;;;;;90.85;42.58;;;;;;;;;;5052587;28;20490;-62
2020/12/23 11:10:00;;;;;;;99.72;42.55;;;;;;;;;;5053246;28;20098;-62
2020/12/23 11:12:26;;;;;;;92.50;41.72;;;;;;;;;;5056879;28;20454;-62
2020/12/23 11:14:52;;;;;;;96.63;43.50;;;;;;;;;;5056806;28;20040;-61
2020/12/23 11:17:18;;;;;;;96.53;43.15;;;;;;;;;;5055174;28;20386;-62
2020/12/23 11:19:44;;;;;;;101.90;43.30;;;;;;;;;;5056722;28;20025;-62
2020/12/23 11:22:11;;;;;;;98.45;44.65;;;;;;;;;;5056218;28;20032;-62
2020/12/23 11:24:37;;;;;;;97.85;44.58;;;;;;;;;;5056412;28;20036;-62
2020/12/23 11:27:03;;;;;;;102.97;45.00;;;;;;;;;;5056123;28;20025;-61
2020/12/23 11:29:29;;;;;;;95.95;44.42;;;;;;;;;;5054939;28;20078;-62
2020/12/23 11:31:55;;;;;;;97.13;44.47;;;;;;;;;;5056124;28;20089;-62
2020/12/23 11:34:21;;;;;;;105.57;46.90;;;;;;;;;;5055966;28;20455;-62
2020/12/23 11:36:47;;;;;;;104.18;45.38;;;;;;;;;;5056289;28;20493;-62
2020/12/23 11:39:14;;;;;;;98.32;44.95;;;;;;;;;;5056071;28;20470;-62
2020/12/23 11:41:40;;;;;;;96.85;43.83;;;;;;;;;;5056246;28;20029;-62
2020/12/23 11:44:06;;;;;;;95.93;44.45;;;;;;;;;;5055973;28;20033;-62
2020/12/23 11:46:32;;;;;;;99.07;45.03;;;;;;;;;;5055603;28;20102;-61
2020/12/23 11:48:58;;;;;;;99.78;44.80;;;;;;;;;;5055693;28;20087;-61
2020/12/23 11:51:24;;;;;;;104.90;46.78;;;;;;;;;;5055768;28;20025;-61
2020/12/23 11:53:51;;;;;;;99.60;43.42;;;;;;;;;;5055856;28;20072;-61
2020/12/23 11:56:18;;;;;;;102.00;44.53;;;;;;;;;;5055327;28;20052;-61
2020/12/23 11:58:44;;;;;;;99.00;44.30;;;;;;;;;;5055953;28;20413;-61
2020/12/23 12:01:10;;;;;;;101.30;43.72;;;;;;;;;;5055590;28;20031;-61
2020/12/23 12:03:36;;;;;;;100.32;44.42;;;;;;;;;;5055905;28;20025;-61
2020/12/23 12:06:02;;;;;;;104.53;44.85;;;;;;;;;;5055573;28;20367;-62
2020/12/23 12:08:30;;;;;;;105.38;45.75;;;;;;;;;;5055429;28;20044;-61
2020/12/23 12:10:56;;;;;;;110.78;46.92;;;;;;;;;;5055338;28;20394;-61
2020/12/23 12:13:24;;;;;;;98.40;46.17;;;;;;;;;;5055444;28;20029;-62
2020/12/23 12:15:50;;;;;;;106.38;47.30;;;;;;;;;;5055122;28;20039;-62
2020/12/23 12:18:16;;;;;;;104.72;46.50;;;;;;;;;;5055449;28;20033;-61
2020/12/23 12:20:42;;;;;;;108.90;46.60;;;;;;;;;;5055395;28;20029;-62
2020/12/23 12:23:09;;;;;;;107.35;46.63;;;;;;;;;;5054461;28;20029;-62
2020/12/23 12:25:35;;;;;;;97.35;44.55;;;;;;;;;;5055364;28;20061;-62
2020/12/23 12:28:02;;;;;;;105.00;45.92;;;;;;;;;;5054970;28;20075;-62
2020/12/23 12:30:28;;;;;;;112.10;50.17;;;;;;;;;;5055110;28;20071;-62
2020/12/23 12:32:55;;;;;;;107.78;49.00;;;;;;;;;;5055021;28;20489;-61
2020/12/23 12:35:21;;;;;;;105.45;50.40;;;;;;;;;;5054854;28;20520;-61
2020/12/23 12:37:47;;;;;;;107.00;48.75;;;;;;;;;;5055126;28;20451;-62
2020/12/23 12:40:13;;;;;;;116.47;55.30;;;;;;;;;;5054856;28;20025;-62
2020/12/23 12:42:39;;;;;;;106.60;47.08;;;;;;;;;;5054782;28;20071;-62
2020/12/23 12:45:05;;;;;;;111.85;49.47;;;;;;;;;;5054790;28;20466;-61
2020/12/23 12:47:31;;;;;;;111.80;51.05;;;;;;;;;;5054834;28;20033;-61
2020/12/23 12:49:58;;;;;;;109.28;48.53;;;;;;;;;;5055862;28;20402;-61
2020/12/23 12:52:24;;;;;;;110.25;48.70;;;;;;;;;;5054612;28;20045;-62
2020/12/23 12:54:50;;;;;;;104.47;45.65;;;;;;;;;;5054405;28;20088;-62
2020/12/23 12:57:16;;;;;;;105.43;46.03;;;;;;;;;;5054087;28;20090;-62
2020/12/23 12:59:42;;;;;;;108.93;45.70;;;;;;;;;;5053749;28;20025;-61
2020/12/23 13:02:11;;;;;;;141.75;60.00;;;;;;;;;;5052526;28;20033;-61
2020/12/23 13:04:38;;;;;;;149.57;65.50;;;;;;;;;;5050276;28;20033;-62
2020/12/23 13:07:04;;;;;;;131.45;56.08;;;;;;;;;;5053649;28;20077;-61
2020/12/23 13:09:30;;;;;;;140.00;61.58;;;;;;;;;;5052423;28;20504;-61
2020/12/23 13:12:00;;;;;;;120.35;54.33;;;;;;;;;;5053312;28;20424;-62
2020/12/23 13:14:26;;;;;;;119.10;53.33;;;;;;;;;;5035943;28;20021;-61
2020/12/23 13:16:52;;;;;;;121.60;51.55;;;;;;;;;;5053377;28;20031;-61
2020/12/23 13:19:18;;;;;;;124.78;54.70;;;;;;;;;;5053326;28;20032;-61
2020/12/23 13:21:48;;;;;;;109.65;47.70;;;;;;;;;;5053612;28;20104;-60
2020/12/23 13:24:14;;;;;;;111.43;48.45;;;;;;;;;;5052506;28;20021;-61
2020/12/23 13:26:40;;;;;;;118.82;49.95;;;;;;;;;;5053350;28;20017;-60
2020/12/23 13:29:06;;;;;;;114.80;49.55;;;;;;;;;;5035614;28;20127;-62
2020/12/23 13:31:33;;;;;;;109.50;49.65;;;;;;;;;;5052763;28;20056;-62
2020/12/23 13:33:59;;;;;;;112.97;50.80;;;;;;;;;;5052617;28;20044;-60
2020/12/23 13:36:26;;;;;;;109.75;49.70;;;;;;;;;;5034974;28;20045;-61
2020/12/23 13:38:52;;;;;;;111.22;49.65;;;;;;;;;;5054001;28;20027;-62
2020/12/23 13:41:18;;;;;;;111.65;50.45;;;;;;;;;;5053327;28;20040;-60
2020/12/23 13:43:45;;;;;;;118.93;50.50;;;;;;;;;;5052650;28;20029;-60
2020/12/23 13:46:15;;;;;;;125.20;52.53;;;;;;;;;;5052681;28;20032;-61
2020/12/23 13:48:41;;;;;;;116.35;49.08;;;;;;;;;;5051118;28;20118;-61
2020/12/23 13:51:11;;;;;;;108.78;49.42;;;;;;;;;;5050707;28;20478;-62
2020/12/23 13:53:38;;;;;;;110.60;48.53;;;;;;;;;;5052856;28;20608;-62
2020/12/23 13:56:04;;;;;;;111.38;47.22;;;;;;;;;;5052471;28;20398;-62
2020/12/23 13:58:30;;;;;;;111.53;48.85;;;;;;;;;;5061687;28;20036;-62
2020/12/23 14:00:57;;;;;;;118.65;52.00;;;;;;;;;;5061142;28;20409;-62
2020/12/23 14:03:23;;;;;;;122.25;50.95;;;;;;;;;;5062240;28;20103;-62
2020/12/23 14:05:49;;;;;;;106.25;48.83;;;;;;;;;;5073406;28;20028;-62
2020/12/23 14:08:15;;;;;;;106.80;48.47;;;;;;;;;;5073640;28;20033;-62
2020/12/23 14:10:41;;;;;;;113.85;51.63;;;;;;;;;;5059507;28;20028;-62
2020/12/23 14:13:07;;;;;;;107.63;49.30;;;;;;;;;;5053388;28;20029;-61